createdAt,value
2017-09-02T00:00:29.861Z,16.37
2017-09-02T00:02:58.227Z,19.77
2017-09-02T00:05:26.606Z,18.93
2017-09-02T00:07:54.916Z,19.10
2017-09-02T00:10:23.239Z,17.30
2017-09-02T00:12:51.571Z,16.50
2017-09-02T00:15:20.032Z,16.50
2017-09-02T00:17:48.352Z,18.10
2017-09-02T00:20:16.676Z,18.40
2017-09-02T00:22:45.035Z,16.03
2017-09-02T00:25:13.331Z,17.00
2017-09-02T00:27:41.679Z,18.80
2017-09-02T00:30:10.993Z,18.03
2017-09-02T00:32:39.332Z,18.63
2017-09-02T00:35:07.660Z,19.93
2017-09-02T00:37:35.972Z,18.80
2017-09-02T00:40:04.418Z,19.00
2017-09-02T00:42:32.735Z,18.93
2017-09-02T00:45:01.057Z,21.70
2017-09-02T00:47:29.390Z,21.47
2017-09-02T00:49:57.935Z,22.53
2017-09-02T00:52:26.284Z,21.33
2017-09-02T00:54:54.597Z,24.90
2017-09-02T00:57:22.923Z,20.63
2017-09-02T00:59:51.300Z,20.80
2017-09-02T01:02:19.598Z,18.73
2017-09-02T01:04:47.973Z,16.93
2017-09-02T01:07:16.301Z,18.97
2017-09-02T01:09:44.674Z,18.73
2017-09-02T01:12:13.014Z,20.67
2017-09-02T01:14:41.308Z,21.10
2017-09-02T01:17:09.647Z,19.90
2017-09-02T01:19:37.973Z,20.87
2017-09-02T01:22:06.292Z,20.93
2017-09-02T01:24:34.621Z,20.97
2017-09-02T01:27:02.974Z,21.90
2017-09-02T01:29:31.318Z,22.73
2017-09-02T01:31:59.632Z,21.07
2017-09-02T01:34:27.973Z,20.57
2017-09-02T01:36:56.308Z,21.63
2017-09-02T01:39:24.609Z,23.20
2017-09-02T01:41:53.035Z,19.93
2017-09-02T01:44:21.360Z,20.40
2017-09-02T01:46:49.691Z,21.13
2017-09-02T01:49:18.017Z,22.10
2017-09-02T01:51:46.334Z,21.07
2017-09-02T01:54:14.687Z,20.00
2017-09-02T01:56:42.996Z,20.60
2017-09-02T01:59:11.316Z,20.80
2017-09-02T02:01:39.658Z,20.20
2017-09-02T02:04:07.964Z,20.13
2017-09-02T02:06:36.329Z,19.37
2017-09-02T02:09:04.651Z,22.77
2017-09-02T02:11:32.985Z,23.13
2017-09-02T02:14:01.322Z,22.57
2017-09-02T02:16:29.638Z,21.20
2017-09-02T02:18:58.120Z,21.93
2017-09-02T02:21:26.435Z,21.97
2017-09-02T02:23:54.754Z,20.73
2017-09-02T02:26:23.076Z,19.80
2017-09-02T02:28:51.394Z,19.07
2017-09-02T02:31:19.849Z,18.63
2017-09-02T02:33:48.186Z,17.13
2017-09-02T02:36:16.542Z,17.30
2017-09-02T02:38:44.879Z,18.47
2017-09-02T02:41:13.202Z,17.10
2017-09-02T02:43:41.548Z,17.30
2017-09-02T02:46:09.871Z,17.60
2017-09-02T02:48:38.197Z,20.00
2017-09-02T02:51:06.532Z,18.37
2017-09-02T02:53:34.861Z,19.30
2017-09-02T02:56:03.214Z,17.47
2017-09-02T02:58:31.536Z,19.00
2017-09-02T03:01:00.892Z,21.30
2017-09-02T03:03:29.654Z,18.07
2017-09-02T03:05:57.969Z,20.57
2017-09-02T03:08:26.310Z,20.10
2017-09-02T03:10:54.640Z,20.77
2017-09-02T03:13:22.960Z,22.60
2017-09-02T03:15:51.295Z,19.90
2017-09-02T03:18:19.631Z,21.27
2017-09-02T03:20:47.976Z,20.70
2017-09-02T03:23:16.302Z,19.80
2017-09-02T03:25:44.623Z,21.33
2017-09-02T03:28:12.960Z,20.07
2017-09-02T03:30:41.273Z,18.20
2017-09-02T03:33:09.636Z,20.70
2017-09-02T03:35:37.966Z,19.30
2017-09-02T03:38:06.273Z,20.03
2017-09-02T03:40:34.615Z,19.23
2017-09-02T03:43:02.945Z,21.00
2017-09-02T03:45:31.271Z,18.87
2017-09-02T03:47:59.588Z,21.40
2017-09-02T03:50:28.848Z,22.67
2017-09-02T03:52:57.176Z,19.53
2017-09-02T03:55:25.492Z,20.23
2017-09-02T03:57:53.883Z,21.30
2017-09-02T04:00:22.211Z,21.87
2017-09-02T04:02:50.578Z,20.80
2017-09-02T04:05:18.913Z,22.37
2017-09-02T04:07:47.242Z,20.80
2017-09-02T04:10:15.637Z,21.60
2017-09-02T04:12:43.952Z,22.40
2017-09-02T04:15:12.272Z,26.20
2017-09-02T04:17:40.615Z,22.23
2017-09-02T04:20:08.945Z,22.93
2017-09-02T04:22:37.310Z,22.57
2017-09-02T04:25:05.634Z,21.67
2017-09-02T04:27:33.957Z,22.87
2017-09-02T04:30:02.281Z,22.30
2017-09-02T04:32:30.599Z,22.23
2017-09-02T04:34:58.941Z,23.10
2017-09-02T04:37:27.251Z,23.67
2017-09-02T04:39:55.577Z,25.73
2017-09-02T04:42:23.984Z,26.90
2017-09-02T04:44:52.301Z,23.47
2017-09-02T04:47:20.681Z,24.70
2017-09-02T04:49:49.012Z,25.10
2017-09-02T04:52:17.347Z,25.37
2017-09-02T04:54:45.714Z,25.93
2017-09-02T04:57:14.029Z,24.03
2017-09-02T04:59:42.388Z,24.83
2017-09-02T05:02:10.710Z,24.00
2017-09-02T05:04:39.026Z,22.83
2017-09-02T05:07:07.372Z,28.30
2017-09-02T05:09:35.671Z,23.40
2017-09-02T05:12:04.051Z,21.83
2017-09-02T05:14:32.372Z,25.27
2017-09-02T05:17:00.696Z,24.50
2017-09-02T05:19:29.048Z,26.93
2017-09-02T05:21:57.347Z,26.40
2017-09-02T05:24:25.739Z,27.83
2017-09-02T05:26:54.056Z,25.83
2017-09-02T05:29:22.369Z,27.10
2017-09-02T05:31:51.022Z,24.60
2017-09-02T05:34:19.364Z,24.43
2017-09-02T05:36:47.718Z,25.67
2017-09-02T05:39:16.090Z,26.23
2017-09-02T05:41:44.413Z,25.93
2017-09-02T05:44:12.758Z,22.07
2017-09-02T05:46:41.089Z,23.70
2017-09-02T05:49:09.471Z,23.13
2017-09-02T05:51:37.783Z,26.33
2017-09-02T05:54:06.102Z,26.00
2017-09-02T05:56:34.513Z,24.13
2017-09-02T05:59:02.882Z,25.17
2017-09-02T06:01:31.251Z,23.40
2017-09-02T06:03:59.573Z,25.30
2017-09-02T06:06:27.929Z,25.13
2017-09-02T06:08:56.244Z,23.37
2017-09-02T06:11:24.565Z,27.33
2017-09-02T06:13:53.287Z,27.50
2017-09-02T06:16:21.600Z,28.87
2017-09-02T06:18:50.004Z,27.80
2017-09-02T06:21:18.403Z,29.57
2017-09-02T06:23:46.730Z,28.17
2017-09-02T06:26:15.076Z,27.17
2017-09-02T06:28:43.439Z,29.50
2017-09-02T06:31:11.814Z,25.00
2017-09-02T06:33:40.145Z,26.80
2017-09-02T06:36:08.482Z,27.70
2017-09-02T06:38:36.829Z,23.33
2017-09-02T06:41:05.145Z,24.03
2017-09-02T06:43:33.466Z,25.67
2017-09-02T06:46:01.791Z,24.37
2017-09-02T06:48:30.113Z,20.87
2017-09-02T06:50:58.472Z,20.17
2017-09-02T06:53:26.791Z,21.83
2017-09-02T06:55:55.121Z,20.67
2017-09-02T06:58:23.451Z,20.57
2017-09-02T07:00:51.780Z,18.30
2017-09-02T07:03:20.123Z,21.53
2017-09-02T07:05:48.489Z,21.53
2017-09-02T07:08:16.812Z,20.13
2017-09-02T07:10:45.142Z,20.80
2017-09-02T07:13:13.471Z,19.13
2017-09-02T07:15:41.833Z,20.80
2017-09-02T07:18:10.152Z,22.80
2017-09-02T07:20:38.469Z,23.23
2017-09-02T07:23:06.801Z,23.80
2017-09-02T07:25:35.121Z,23.90
2017-09-02T07:28:03.478Z,20.00
2017-09-02T07:30:31.788Z,23.53
2017-09-02T07:33:00.101Z,23.10
2017-09-02T07:35:28.433Z,20.90
2017-09-02T07:37:56.750Z,22.50
2017-09-02T07:40:25.204Z,22.20
2017-09-02T07:42:54.264Z,23.20
2017-09-02T07:45:22.582Z,18.70
2017-09-02T07:47:50.910Z,15.97
2017-09-02T07:50:19.239Z,17.67
2017-09-02T07:52:47.596Z,18.70
2017-09-02T07:55:15.942Z,19.10
2017-09-02T07:57:44.271Z,18.33
2017-09-02T08:00:12.606Z,18.90
2017-09-02T08:02:40.923Z,21.10
2017-09-02T08:05:09.824Z,19.20
2017-09-02T08:07:38.138Z,15.37
2017-09-02T08:10:06.450Z,15.30
2017-09-02T08:12:34.905Z,17.93
2017-09-02T08:15:04.780Z,16.40
2017-09-02T08:17:33.996Z,15.40
2017-09-02T08:20:03.110Z,13.83
2017-09-02T08:22:31.695Z,13.33
2017-09-02T08:25:00.113Z,17.20
2017-09-02T08:27:28.496Z,16.07
2017-09-02T08:29:56.905Z,15.20
2017-09-02T08:32:25.515Z,16.97
2017-09-02T08:34:53.942Z,17.20
2017-09-02T08:37:22.453Z,17.83
2017-09-02T08:39:50.814Z,19.20
2017-09-02T08:42:19.332Z,18.13
2017-09-02T08:47:22.357Z,17.80
2017-09-02T08:49:51.054Z,18.77
2017-09-02T08:52:19.552Z,19.13
2017-09-02T08:54:48.931Z,13.87
2017-09-02T08:57:17.515Z,13.83
2017-09-02T08:59:46.132Z,15.60
2017-09-02T09:02:14.871Z,13.47
2017-09-02T09:04:43.532Z,16.27
2017-09-02T09:07:11.941Z,15.50
2017-09-02T09:09:40.362Z,14.50
2017-09-02T09:12:08.917Z,10.20
2017-09-02T09:14:37.300Z,10.43
2017-09-02T09:17:05.719Z,9.80
2017-09-02T09:19:34.552Z,12.10
2017-09-02T09:22:02.986Z,11.07
2017-09-02T09:24:31.365Z,13.63
2017-09-02T09:26:59.802Z,14.10
2017-09-02T09:29:28.973Z,11.47
2017-09-02T09:31:57.450Z,12.33
2017-09-02T09:34:26.215Z,11.60
2017-09-02T09:36:54.718Z,12.50
2017-09-02T09:39:23.313Z,11.33
2017-09-02T09:41:51.887Z,10.63
2017-09-02T09:44:20.940Z,6.23
2017-09-02T09:46:54.069Z,9.73
2017-09-02T09:49:22.602Z,9.03
2017-09-02T09:51:51.007Z,7.90
2017-09-02T09:54:19.460Z,6.97
2017-09-02T09:56:47.955Z,6.83
2017-09-02T09:59:16.418Z,9.03
2017-09-02T10:01:45.325Z,8.03
2017-09-02T10:04:13.694Z,6.63
2017-09-02T10:06:42.454Z,6.73
2017-09-02T10:09:12.738Z,6.23
2017-09-02T10:11:41.134Z,8.60
2017-09-02T10:14:09.586Z,8.00
2017-09-02T10:16:37.901Z,6.10
2017-09-02T10:19:06.367Z,8.20
2017-09-02T10:21:34.765Z,6.00
2017-09-02T10:24:03.097Z,5.50
2017-09-02T10:26:31.426Z,7.10
2017-09-02T10:28:59.817Z,5.30
2017-09-02T10:31:28.457Z,5.60
2017-09-02T10:33:56.824Z,4.83
2017-09-02T10:36:25.187Z,6.23
2017-09-02T10:38:53.528Z,5.40
2017-09-02T10:41:21.861Z,4.60
2017-09-02T10:43:50.258Z,4.47
2017-09-02T10:46:18.697Z,3.80
2017-09-02T10:48:47.067Z,4.50
2017-09-02T10:51:15.468Z,3.47
2017-09-02T10:53:44.750Z,5.00
2017-09-02T10:56:13.135Z,3.25
2017-09-02T10:58:41.568Z,3.10
2017-09-02T11:01:09.946Z,3.90
2017-09-02T11:03:39.568Z,3.07
2017-09-02T11:06:08.469Z,2.70
2017-09-02T11:08:36.813Z,4.40
2017-09-02T11:11:05.197Z,3.30
2017-09-02T11:13:34.718Z,3.43
2017-09-02T11:16:03.138Z,4.47
2017-09-02T11:18:31.474Z,3.73
2017-09-02T11:20:59.813Z,3.90
2017-09-02T11:23:28.250Z,4.07
2017-09-02T11:25:56.600Z,3.30
2017-09-02T11:28:25.021Z,3.03
2017-09-02T11:30:53.399Z,4.50
2017-09-02T11:33:21.968Z,3.60
2017-09-02T11:35:50.457Z,3.10
2017-09-02T11:38:18.846Z,2.93
2017-09-02T11:40:47.363Z,2.73
2017-09-02T11:43:15.714Z,2.67
2017-09-02T11:45:44.099Z,2.80
2017-09-02T11:48:36.132Z,3.87
2017-09-02T11:51:04.433Z,3.37
2017-09-02T11:53:32.955Z,2.70
2017-09-02T11:56:01.509Z,2.90
2017-09-02T11:58:31.091Z,3.00
2017-09-02T12:00:59.438Z,3.53
2017-09-02T12:03:27.746Z,3.53
2017-09-02T12:05:56.087Z,3.87
2017-09-02T12:08:25.180Z,3.77
2017-09-02T12:10:54.015Z,2.77
2017-09-02T12:13:22.724Z,3.63
2017-09-02T12:15:51.016Z,5.70
2017-09-02T12:18:22.236Z,3.83
2017-09-02T12:20:50.881Z,4.43
2017-09-02T12:23:19.516Z,3.77
2017-09-02T12:25:47.878Z,3.57
2017-09-02T12:28:21.371Z,3.80
2017-09-02T12:30:49.987Z,5.10
2017-09-02T12:33:19.845Z,2.40
2017-09-02T12:35:51.195Z,3.33
2017-09-02T12:38:20.236Z,3.77
2017-09-02T12:40:48.563Z,3.10
2017-09-02T12:43:17.620Z,4.40
2017-09-02T12:45:46.929Z,3.17
2017-09-02T12:48:16.620Z,3.33
2017-09-02T12:50:46.399Z,2.30
2017-09-02T12:53:15.125Z,3.07
2017-09-02T12:55:43.772Z,4.00
2017-09-02T12:58:12.553Z,3.60
2017-09-02T13:00:42.037Z,4.90
2017-09-02T13:03:10.852Z,3.77
2017-09-02T13:05:40.896Z,3.77
2017-09-02T13:08:09.233Z,3.30
2017-09-02T13:10:37.755Z,3.20
2017-09-02T13:13:06.453Z,3.17
2017-09-02T13:15:35.692Z,3.70
2017-09-02T13:18:04.001Z,4.33
2017-09-02T13:20:32.748Z,4.33
2017-09-02T13:23:01.709Z,4.43
2017-09-02T13:25:30.878Z,4.50
2017-09-02T13:27:59.925Z,4.00
2017-09-02T13:30:28.234Z,3.60
2017-09-02T13:32:57.423Z,3.97
2017-09-02T13:35:26.470Z,4.17
2017-09-02T13:37:55.960Z,4.60
2017-09-02T13:40:24.820Z,5.30
2017-09-02T13:42:54.441Z,5.23
2017-09-02T13:45:23.902Z,4.47
2017-09-02T13:47:53.365Z,5.20
2017-09-02T13:50:21.727Z,4.00
2017-09-02T13:52:50.304Z,3.90
2017-09-02T13:55:19.099Z,4.53
2017-09-02T13:57:47.703Z,5.27
2017-09-02T14:00:16.390Z,5.33
2017-09-02T14:02:46.190Z,6.20
2017-09-02T14:05:15.710Z,7.20
2017-09-02T14:07:44.724Z,6.50
2017-09-02T14:10:16.479Z,6.63
2017-09-02T14:12:46.336Z,5.50
2017-09-02T14:15:15.561Z,6.80
2017-09-02T14:17:45.194Z,8.50
2017-09-02T14:20:14.600Z,6.93
2017-09-02T14:22:43.983Z,7.20
2017-09-02T14:25:14.593Z,9.13
2017-09-02T14:27:43.797Z,6.90
2017-09-02T14:30:12.928Z,6.37
2017-09-02T14:32:43.295Z,6.40
2017-09-02T14:35:12.289Z,7.70
2017-09-02T14:37:40.934Z,5.87
2017-09-02T14:40:10.288Z,7.30
2017-09-02T14:42:39.165Z,7.03
2017-09-02T14:45:08.668Z,6.60
2017-09-02T14:47:38.019Z,5.63
2017-09-02T14:50:06.431Z,5.30
2017-09-02T14:52:34.740Z,7.00
2017-09-02T14:55:03.928Z,6.30
2017-09-02T14:57:33.732Z,7.57
2017-09-02T15:00:02.118Z,6.60
2017-09-02T15:02:31.060Z,6.87
2017-09-02T15:05:01.603Z,7.03
2017-09-02T15:07:32.120Z,5.50
2017-09-02T15:10:00.536Z,6.70
2017-09-02T15:12:28.845Z,5.83
2017-09-02T15:14:57.434Z,5.33
2017-09-02T15:17:27.257Z,5.43
2017-09-02T15:19:56.252Z,5.03
2017-09-02T15:22:26.433Z,5.10
2017-09-02T15:24:54.879Z,4.80
2017-09-02T15:27:23.765Z,4.47
2017-09-02T15:29:52.940Z,4.40
2017-09-02T15:32:21.255Z,4.87
2017-09-02T15:34:50.230Z,5.83
2017-09-02T15:37:18.860Z,4.00
2017-09-02T15:39:47.827Z,4.93
2017-09-02T15:42:16.297Z,5.13
2017-09-02T15:44:46.322Z,4.40
2017-09-02T15:47:15.384Z,4.90
2017-09-02T15:49:46.114Z,5.83
2017-09-02T15:52:15.977Z,5.97
2017-09-02T15:54:46.619Z,4.70
2017-09-02T15:57:16.882Z,6.00
2017-09-02T15:59:47.535Z,5.50
2017-09-02T16:02:17.424Z,5.50
2017-09-02T16:04:46.004Z,5.27
2017-09-02T16:07:14.839Z,5.87
2017-09-02T16:09:43.941Z,5.90
2017-09-02T16:12:12.607Z,7.50
2017-09-02T16:14:42.333Z,7.20
2017-09-02T16:17:10.963Z,6.60
2017-09-02T16:19:42.600Z,5.97
2017-09-02T16:22:11.690Z,6.40
2017-09-02T16:24:41.048Z,6.70
2017-09-02T16:27:10.032Z,6.30
2017-09-02T16:29:39.321Z,6.30
2017-09-02T16:32:07.669Z,5.97
2017-09-02T16:34:36.329Z,5.60
2017-09-02T16:37:05.270Z,4.60
2017-09-02T16:39:34.609Z,4.87
2017-09-02T16:42:02.910Z,5.33
2017-09-02T16:44:31.225Z,5.37
2017-09-02T16:47:00.252Z,6.30
2017-09-02T16:49:31.478Z,6.57
2017-09-02T16:52:00.847Z,8.23
2017-09-02T16:54:29.259Z,6.87
2017-09-02T16:56:58.311Z,7.80
2017-09-02T16:59:26.986Z,7.60
2017-09-02T17:01:55.950Z,7.03
2017-09-02T17:04:25.557Z,6.90
2017-09-02T17:06:55.794Z,7.40
2017-09-02T17:09:25.754Z,6.80
2017-09-02T17:11:55.408Z,7.40
2017-09-02T17:14:24.733Z,7.80
2017-09-02T17:16:53.767Z,7.73
2017-09-02T17:19:22.879Z,7.10
2017-09-02T17:21:51.222Z,7.70
2017-09-02T17:24:20.213Z,8.40
2017-09-02T17:26:48.890Z,8.93
2017-09-02T17:29:17.716Z,8.50
2017-09-02T17:31:46.084Z,9.03
2017-09-02T17:34:14.397Z,9.00
2017-09-02T17:36:43.716Z,9.00
2017-09-02T17:39:13.052Z,9.30
2017-09-02T17:41:41.364Z,9.60
2017-09-02T17:44:10.085Z,10.67
2017-09-02T17:46:39.264Z,10.90
2017-09-02T17:49:07.758Z,10.50
2017-09-02T17:51:36.307Z,10.07
2017-09-02T17:54:05.379Z,11.30
2017-09-02T17:56:34.865Z,11.00
2017-09-02T17:59:03.450Z,12.93
2017-09-02T18:01:33.180Z,12.50
2017-09-02T18:04:02.424Z,14.17
2017-09-02T18:06:30.741Z,12.17
2017-09-02T18:08:59.606Z,12.70
2017-09-02T18:11:28.028Z,11.67
2017-09-02T18:13:56.452Z,11.97
2017-09-02T18:16:24.793Z,12.00
2017-09-02T18:18:53.125Z,12.37
2017-09-02T18:21:21.509Z,12.87
2017-09-02T18:23:49.843Z,10.93
2017-09-02T18:26:18.233Z,12.47
2017-09-02T18:28:46.611Z,13.27
2017-09-02T18:31:14.948Z,12.23
2017-09-02T18:33:43.298Z,12.23
2017-09-02T18:36:11.626Z,12.93
2017-09-02T18:38:40.053Z,13.93
2017-09-02T18:41:08.381Z,13.10
2017-09-02T18:43:36.692Z,12.53
2017-09-02T18:46:05.056Z,14.60
2017-09-02T18:48:33.402Z,12.80
2017-09-02T18:51:01.793Z,15.77
2017-09-02T18:53:30.178Z,14.63
2017-09-02T18:55:58.505Z,13.93
2017-09-02T18:58:26.857Z,15.93
2017-09-02T19:00:55.369Z,14.13
2017-09-02T19:03:23.778Z,14.17
2017-09-02T19:05:52.284Z,13.90
2017-09-02T19:08:20.649Z,15.43
2017-09-02T19:10:49.047Z,16.30
2017-09-02T19:13:17.522Z,14.80
2017-09-02T19:15:45.966Z,16.00
2017-09-02T19:18:14.419Z,17.10
2017-09-02T19:20:42.761Z,16.30
2017-09-02T19:23:11.156Z,16.43
2017-09-02T19:25:39.524Z,16.73
2017-09-02T19:28:07.967Z,17.30
2017-09-02T19:30:36.297Z,16.30
2017-09-02T19:33:04.645Z,16.80
2017-09-02T19:35:32.980Z,17.37
2017-09-02T19:38:01.437Z,17.57
2017-09-02T19:40:29.911Z,18.37
2017-09-02T19:42:58.245Z,19.10
2017-09-02T19:45:26.598Z,17.00
2017-09-02T19:47:54.930Z,16.97
2017-09-02T19:50:23.233Z,16.70
2017-09-02T19:52:51.701Z,15.20
2017-09-02T19:55:20.119Z,16.13
2017-09-02T19:57:48.457Z,15.20
2017-09-02T20:00:16.842Z,14.63
2017-09-02T20:02:45.169Z,16.27
2017-09-02T20:05:13.717Z,14.93
2017-09-02T20:07:42.041Z,15.67
2017-09-02T20:10:10.634Z,13.53
2017-09-02T20:12:39.001Z,14.57
2017-09-02T20:15:07.563Z,15.17
2017-09-02T20:17:37.030Z,14.60
2017-09-02T20:20:05.356Z,14.63
2017-09-02T20:22:33.669Z,14.83
2017-09-02T20:25:02.018Z,13.43
2017-09-02T20:27:30.334Z,13.80
2017-09-02T20:29:58.732Z,14.73
2017-09-02T20:32:27.076Z,14.70
2017-09-02T20:34:55.405Z,14.20
2017-09-02T20:37:23.880Z,14.10
2017-09-02T20:39:52.205Z,13.37
2017-09-02T20:42:20.594Z,15.00
2017-09-02T20:44:48.919Z,13.67
2017-09-02T20:47:17.301Z,13.20
2017-09-02T20:49:45.625Z,12.73
2017-09-02T20:52:13.969Z,13.00
2017-09-02T20:54:42.337Z,12.73
2017-09-02T20:57:10.664Z,12.83
2017-09-02T20:59:39.006Z,11.77
2017-09-02T21:02:07.334Z,12.27
2017-09-02T21:04:35.675Z,13.87
2017-09-02T21:07:04.331Z,10.87
2017-09-02T21:09:32.645Z,13.03
2017-09-02T21:12:00.982Z,14.50
2017-09-02T21:14:29.322Z,12.57
2017-09-02T21:16:57.628Z,11.30
2017-09-02T21:19:26.124Z,11.87
2017-09-02T21:21:54.459Z,11.60
2017-09-02T21:24:23.031Z,10.57
2017-09-02T21:26:51.374Z,11.57
2017-09-02T21:29:19.739Z,10.00
2017-09-02T21:31:48.168Z,11.27
2017-09-02T21:34:16.522Z,9.60
2017-09-02T21:36:44.841Z,10.50
2017-09-02T21:39:13.165Z,12.13
2017-09-02T21:41:41.487Z,10.37
2017-09-02T21:44:09.991Z,11.60
2017-09-02T21:46:38.308Z,12.13
2017-09-02T21:49:06.622Z,12.17
2017-09-02T21:51:34.962Z,10.83
2017-09-02T21:54:03.292Z,11.57
2017-09-02T21:56:31.663Z,12.90
2017-09-02T21:58:59.986Z,11.80
2017-09-02T22:01:28.303Z,12.40
2017-09-02T22:03:56.632Z,10.67
2017-09-02T22:06:24.947Z,11.33
2017-09-02T22:08:53.305Z,12.67
2017-09-02T22:11:21.616Z,11.10
2017-09-02T22:13:49.941Z,11.57
2017-09-02T22:16:18.277Z,11.30
2017-09-02T22:18:46.637Z,11.47
2017-09-02T22:21:14.998Z,11.67
2017-09-02T22:23:43.342Z,10.70
2017-09-02T22:26:11.652Z,9.50
2017-09-02T22:28:39.986Z,9.83
2017-09-02T22:31:08.318Z,10.50
2017-09-02T22:33:36.684Z,10.63
2017-09-02T22:36:05.018Z,10.37
2017-09-02T22:38:33.342Z,9.50
2017-09-02T22:41:01.665Z,9.87
2017-09-02T22:43:29.980Z,8.60
2017-09-02T22:45:58.320Z,8.50
2017-09-02T22:48:26.740Z,8.77
2017-09-02T22:50:55.033Z,9.67
2017-09-02T22:53:23.357Z,9.53
2017-09-02T22:55:51.692Z,10.13
2017-09-02T22:58:20.052Z,10.53
2017-09-02T23:00:48.385Z,9.67
2017-09-02T23:03:16.733Z,11.30
2017-09-02T23:05:45.079Z,9.33
2017-09-02T23:08:13.382Z,9.37
2017-09-02T23:10:41.733Z,9.00
2017-09-02T23:13:10.056Z,10.20
2017-09-02T23:15:38.369Z,9.90
2017-09-02T23:18:06.705Z,9.03
2017-09-02T23:20:35.029Z,9.07
2017-09-02T23:23:03.390Z,9.50
2017-09-02T23:25:31.705Z,8.63
2017-09-02T23:28:00.016Z,7.97
2017-09-02T23:30:28.347Z,9.37
2017-09-02T23:32:56.676Z,7.43
2017-09-02T23:35:25.026Z,9.23
2017-09-02T23:37:53.338Z,8.60
2017-09-02T23:40:21.645Z,8.33
2017-09-02T23:42:49.991Z,8.13
2017-09-02T23:45:18.317Z,9.40
2017-09-02T23:47:46.751Z,8.03
2017-09-02T23:50:15.082Z,9.20
2017-09-02T23:52:43.396Z,7.30
2017-09-02T23:55:11.752Z,8.17
2017-09-02T23:57:40.063Z,8.53
